createdAt,value
2022-10-29T02:59:49.554Z,15.37
2022-10-29T03:02:17.540Z,15.38
2022-10-29T03:04:45.501Z,15.37
2022-10-29T03:07:13.556Z,15.36
2022-10-29T03:09:41.445Z,15.35
2022-10-29T03:12:09.704Z,15.34
2022-10-29T03:14:37.640Z,15.31
2022-10-29T03:17:06.817Z,15.29
2022-10-29T03:19:34.741Z,15.29
2022-10-29T03:22:02.564Z,15.31
2022-10-29T03:24:30.440Z,15.34
2022-10-29T03:26:58.285Z,15.33
2022-10-29T03:29:26.171Z,15.32
2022-10-29T03:31:54.138Z,15.33
2022-10-29T03:34:23.797Z,15.34
2022-10-29T03:36:51.709Z,15.36
2022-10-29T03:39:19.692Z,15.41
2022-10-29T03:41:47.484Z,15.47
2022-10-29T03:44:15.371Z,15.52
2022-10-29T03:46:43.289Z,15.53
2022-10-29T03:49:11.197Z,15.49
2022-10-29T03:51:40.710Z,15.47
2022-10-29T03:54:08.602Z,15.47
2022-10-29T03:56:38.685Z,15.49
2022-10-29T04:01:44.162Z,15.54
2022-10-29T04:04:15.556Z,15.55
2022-10-29T04:06:50.294Z,15.55
2022-10-29T04:09:21.344Z,15.56
2022-10-29T04:11:56.817Z,15.58
2022-10-29T04:14:27.823Z,15.58
2022-10-29T04:17:01.418Z,15.61
2022-10-29T04:19:49.048Z,15.61
2022-10-29T04:28:43.828Z,15.61
2022-10-29T04:31:23.231Z,15.61
2022-10-29T04:40:28.503Z,15.66
2022-10-29T04:43:06.789Z,15.66
2022-10-29T04:45:47.447Z,15.65
2022-10-29T04:48:33.961Z,15.66
2022-10-29T04:51:08.178Z,15.65
2022-10-29T04:53:46.079Z,15.64
2022-10-29T04:57:05.753Z,15.64
2022-10-29T05:05:22.821Z,15.71
2022-10-29T05:07:50.557Z,15.75
2022-10-29T05:10:19.029Z,15.77
2022-10-29T05:12:47.050Z,15.76
2022-10-29T05:15:17.244Z,15.74
2022-10-29T05:17:45.295Z,15.75
2022-10-29T05:20:13.129Z,15.73
2022-10-29T05:22:42.303Z,15.74
2022-10-29T05:25:18.848Z,15.73
2022-10-29T05:27:48.433Z,15.74
2022-10-29T05:30:17.451Z,15.73
2022-10-29T05:32:46.148Z,15.72
2022-10-29T05:35:14.632Z,15.70
2022-10-29T05:37:44.393Z,15.68
2022-10-29T05:40:16.001Z,15.70
2022-10-29T05:42:47.409Z,15.73
2022-10-29T05:45:20.328Z,15.75
2022-10-29T05:47:49.678Z,15.77
2022-10-29T05:50:21.621Z,15.79
2022-10-29T05:52:59.648Z,15.78
2022-10-29T05:55:40.088Z,15.76
2022-10-29T05:58:13.387Z,15.75
2022-10-29T06:00:51.416Z,15.74
2022-10-29T06:03:25.049Z,15.74
2022-10-29T06:09:11.830Z,15.77
2022-10-29T06:11:40.089Z,15.78
2022-10-29T06:14:07.776Z,15.80
2022-10-29T06:16:35.691Z,15.80
2022-10-29T06:19:03.473Z,15.80
2022-10-29T06:21:30.968Z,15.78
2022-10-29T06:23:58.452Z,15.77
2022-10-29T06:26:27.335Z,15.76
2022-10-29T06:28:54.908Z,15.74
2022-10-29T06:31:22.494Z,15.71
2022-10-29T06:33:50.009Z,15.71
2022-10-29T06:36:17.492Z,15.74
2022-10-29T06:38:45.046Z,15.72
2022-10-29T06:41:12.589Z,15.70
2022-10-29T06:43:41.545Z,15.71
2022-10-29T06:46:09.431Z,15.74
2022-10-29T06:48:36.936Z,15.75
2022-10-29T06:51:04.568Z,15.70
2022-10-29T06:53:32.074Z,15.68
2022-10-29T06:56:00.170Z,15.68
2022-10-29T06:58:27.732Z,15.67
2022-10-29T07:03:29.019Z,15.65
2022-10-29T07:05:57.382Z,15.66
2022-10-29T07:08:25.215Z,15.66
2022-10-29T07:13:34.297Z,15.76
2022-10-29T07:16:03.601Z,15.83
2022-10-29T07:18:32.843Z,15.91
2022-10-29T07:21:02.660Z,15.98
2022-10-29T07:26:09.466Z,16.15
2022-10-29T07:28:45.679Z,16.23
2022-10-29T07:31:32.678Z,16.33
2022-10-29T07:34:00.426Z,16.45
2022-10-29T07:36:28.066Z,16.57
2022-10-29T07:39:17.299Z,16.68
2022-10-29T07:44:23.772Z,16.88
2022-10-29T07:46:53.236Z,16.97
2022-10-29T07:49:21.491Z,17.05
2022-10-29T07:51:50.057Z,17.12
2022-10-29T08:04:28.561Z,17.89
2022-10-29T08:06:56.405Z,18.05
2022-10-29T08:09:24.108Z,18.20
2022-10-29T08:11:51.759Z,18.35
2022-10-29T08:14:22.627Z,18.56
2022-10-29T08:16:50.532Z,18.74
2022-10-29T08:19:18.134Z,18.94
2022-10-29T08:32:52.869Z,20.39
2022-10-29T08:35:21.065Z,20.75
2022-10-29T08:37:49.248Z,21.10
2022-10-29T08:48:39.770Z,22.43
2022-10-29T08:51:19.922Z,22.59
2022-10-29T08:54:17.030Z,22.71
2022-10-29T08:56:49.618Z,22.85
2022-10-29T08:59:21.499Z,23.08
2022-10-29T09:01:55.057Z,23.36
2022-10-29T09:04:32.249Z,23.75
2022-10-29T09:07:25.462Z,24.20
2022-10-29T09:10:14.083Z,24.84
2022-10-29T09:13:10.737Z,25.53
2022-10-29T09:16:17.801Z,25.93
2022-10-29T09:27:08.183Z,28.15
2022-10-29T09:47:10.058Z,30.35
2022-10-29T09:49:52.389Z,30.25
2022-10-29T09:52:23.535Z,30.22
2022-10-29T09:54:53.144Z,30.05
2022-10-29T09:57:23.391Z,29.83
2022-10-29T09:59:54.955Z,29.66
2022-10-29T10:02:29.623Z,29.46
2022-10-29T10:05:02.226Z,29.32
2022-10-29T10:07:29.822Z,29.24
2022-10-29T10:09:59.789Z,29.24
2022-10-29T10:12:29.091Z,29.24
2022-10-29T10:15:04.683Z,29.32
2022-10-29T10:17:55.906Z,29.48
2022-10-29T10:20:29.968Z,29.97
2022-10-29T10:22:57.950Z,30.95
2022-10-29T10:25:33.963Z,32.19
2022-10-29T10:28:05.127Z,33.31
2022-10-29T10:30:32.685Z,34.29
2022-10-29T10:35:51.261Z,35.81
2022-10-29T10:38:19.235Z,36.31
2022-10-29T10:40:55.713Z,36.83
2022-10-29T10:43:26.358Z,37.59
2022-10-29T10:45:57.847Z,38.19
2022-10-29T10:48:33.360Z,38.63
2022-10-29T10:51:24.416Z,38.85
2022-10-29T10:53:52.640Z,38.99
2022-10-29T10:56:22.386Z,39.14
2022-10-29T10:59:02.702Z,39.31
2022-10-29T11:01:36.057Z,39.19
2022-10-29T11:04:12.741Z,39.49
2022-10-29T11:06:42.684Z,40.19
2022-10-29T11:09:16.504Z,40.84
2022-10-29T11:11:46.445Z,41.32
2022-10-29T11:14:19.044Z,41.65
2022-10-29T11:16:49.794Z,41.85
2022-10-29T11:19:24.131Z,41.90
2022-10-29T11:22:03.261Z,41.75
2022-10-29T11:24:40.502Z,41.63
2022-10-29T11:27:18.961Z,41.82
2022-10-29T11:29:53.091Z,42.49
2022-10-29T11:32:24.779Z,42.90
2022-10-29T11:35:04.105Z,43.27
2022-10-29T11:37:37.047Z,43.65
2022-10-29T11:40:10.967Z,43.91
2022-10-29T11:42:39.237Z,43.95
2022-10-29T11:45:13.469Z,44.02
2022-10-29T11:47:59.890Z,44.35
2022-10-29T11:50:39.992Z,44.65
2022-10-29T11:53:22.343Z,44.83
2022-10-29T11:56:01.822Z,45.12
2022-10-29T11:58:38.186Z,45.40
2022-10-29T12:01:16.763Z,45.48
2022-10-29T12:04:02.482Z,45.24
2022-10-29T12:06:40.314Z,44.74
2022-10-29T12:09:36.759Z,43.80
2022-10-29T12:12:12.795Z,42.32
2022-10-29T12:14:45.418Z,40.77
2022-10-29T12:17:17.422Z,39.55
2022-10-29T12:19:51.578Z,38.54
2022-10-29T12:22:29.251Z,37.68
2022-10-29T12:25:12.547Z,36.88
2022-10-29T12:27:46.859Z,36.22
2022-10-29T12:30:18.063Z,35.68
2022-10-29T12:32:53.862Z,35.21
2022-10-29T12:35:28.799Z,34.73
2022-10-29T12:38:17.229Z,34.27
2022-10-29T12:40:47.068Z,33.91
2022-10-29T12:43:20.972Z,33.63
2022-10-29T12:48:53.133Z,33.07
2022-10-29T12:51:25.351Z,32.82
2022-10-29T12:54:13.939Z,32.63
2022-10-29T12:56:45.009Z,32.49
2022-10-29T12:59:45.855Z,32.22
2022-10-29T13:02:26.036Z,31.97
2022-10-29T13:05:16.699Z,31.71
2022-10-29T13:08:19.643Z,31.49
2022-10-29T13:10:54.198Z,31.27
2022-10-29T13:13:38.356Z,31.09
2022-10-29T13:16:14.414Z,30.92
2022-10-29T13:18:56.625Z,30.81
2022-10-29T13:21:56.217Z,30.70
2022-10-29T13:24:24.554Z,30.57
2022-10-29T13:27:02.436Z,30.44
2022-10-29T13:29:44.244Z,30.30
2022-10-29T13:32:29.973Z,30.15
2022-10-29T13:34:59.260Z,30.03
2022-10-29T13:38:16.799Z,29.93
2022-10-29T13:41:13.172Z,29.85
2022-10-29T13:43:44.645Z,29.75
2022-10-29T13:46:34.517Z,29.68
2022-10-29T13:49:07.886Z,29.61
2022-10-29T13:51:43.772Z,29.53
2022-10-29T13:54:19.771Z,29.44
2022-10-29T13:56:51.691Z,29.36
2022-10-29T13:59:24.014Z,29.36
2022-10-29T14:02:04.044Z,29.23
2022-10-29T14:04:37.780Z,29.12
2022-10-29T14:07:12.654Z,29.02
2022-10-29T14:09:45.050Z,28.91
2022-10-29T14:12:18.399Z,28.82
2022-10-29T14:14:55.834Z,28.71
2022-10-29T14:17:23.368Z,28.60
2022-10-29T14:19:52.565Z,28.51
2022-10-29T14:22:36.335Z,28.41
2022-10-29T14:25:20.336Z,28.30
2022-10-29T14:27:47.918Z,28.22
2022-10-29T14:30:20.654Z,28.13
2022-10-29T14:32:48.263Z,28.04
2022-10-29T14:35:17.525Z,27.92
2022-10-29T14:37:47.749Z,27.81
2022-10-29T14:40:20.538Z,27.72
2022-10-29T14:42:53.715Z,27.60
2022-10-29T14:45:26.160Z,27.47
2022-10-29T14:47:56.277Z,27.36
2022-10-29T14:50:26.055Z,27.24
2022-10-29T14:52:57.051Z,27.11
2022-10-29T14:55:28.151Z,26.97
2022-10-29T14:58:05.052Z,26.84
2022-10-29T15:00:37.181Z,26.69
2022-10-29T15:03:06.890Z,26.56
2022-10-29T15:05:36.224Z,26.45
2022-10-29T15:12:02.146Z,26.15
2022-10-29T15:25:23.315Z,25.44
2022-10-29T15:27:52.531Z,25.31
2022-10-29T15:30:21.668Z,25.19
2022-10-29T15:32:50.074Z,25.11
2022-10-29T15:35:21.154Z,25.03
2022-10-29T15:37:51.580Z,24.93
2022-10-29T15:40:25.019Z,24.82
2022-10-29T15:42:53.770Z,24.72
2022-10-29T15:45:26.869Z,24.63
2022-10-29T15:47:59.276Z,24.52
2022-10-29T15:50:35.337Z,24.41
2022-10-29T15:53:05.954Z,24.31
2022-10-29T15:55:37.702Z,24.18
2022-10-29T15:58:08.098Z,24.07
2022-10-29T16:04:23.708Z,23.92
2022-10-29T16:06:51.612Z,23.83
2022-10-29T16:09:21.819Z,23.78
2022-10-29T16:23:10.745Z,23.42
2022-10-29T16:25:39.369Z,23.33
2022-10-29T16:28:07.971Z,23.25
2022-10-29T16:39:08.530Z,22.98
2022-10-29T16:41:54.932Z,22.90
2022-10-29T16:50:30.770Z,22.65
2022-10-29T16:53:11.756Z,22.56
2022-10-29T16:56:09.967Z,22.51
2022-10-29T16:59:01.393Z,22.46
2022-10-29T17:01:38.335Z,22.41
2022-10-29T17:04:19.537Z,22.37
2022-10-29T17:07:01.093Z,22.33
2022-10-29T17:09:40.956Z,22.25
2022-10-29T17:12:17.753Z,22.20
2022-10-29T17:14:59.090Z,22.16
2022-10-29T17:17:39.967Z,22.09
2022-10-29T17:20:28.174Z,22.04
2022-10-29T17:23:00.859Z,21.98
2022-10-29T17:25:32.571Z,21.97
2022-10-29T17:28:10.347Z,21.89
2022-10-29T17:30:47.187Z,21.84
2022-10-29T17:33:23.569Z,21.78
2022-10-29T17:36:06.598Z,21.76
2022-10-29T17:38:38.019Z,21.72
2022-10-29T17:41:11.639Z,21.68
2022-10-29T17:43:46.703Z,21.64
2022-10-29T17:46:28.787Z,21.59
2022-10-29T17:49:00.568Z,21.55
2022-10-29T17:51:33.786Z,21.53
2022-10-29T17:54:04.553Z,21.49
2022-10-29T17:56:42.551Z,21.46
2022-10-29T17:59:20.541Z,21.44
2022-10-29T18:01:52.488Z,21.40
2022-10-29T18:04:35.967Z,21.37
2022-10-29T18:07:07.103Z,21.34
2022-10-29T18:09:37.863Z,21.32
2022-10-29T18:12:18.225Z,21.30
2022-10-29T18:14:52.625Z,21.28
2022-10-29T18:17:23.041Z,21.26
2022-10-29T18:19:56.722Z,21.24
2022-10-29T18:22:30.907Z,21.20
2022-10-29T18:25:05.828Z,21.18
2022-10-29T18:27:42.243Z,21.15
2022-10-29T18:30:23.552Z,21.12
2022-10-29T18:32:55.747Z,21.09
2022-10-29T18:35:28.601Z,21.06
2022-10-29T18:37:58.992Z,21.05
2022-10-29T18:43:24.193Z,21.02
2022-10-29T18:46:06.307Z,21.01
2022-10-29T18:48:43.030Z,20.99
2022-10-29T18:51:14.192Z,20.97
2022-10-29T18:53:45.065Z,20.94
2022-10-29T18:56:20.367Z,20.91
2022-10-29T18:58:51.012Z,20.89
2022-10-29T19:01:26.725Z,20.86
2022-10-29T19:04:02.954Z,20.84
2022-10-29T19:06:37.289Z,20.83
2022-10-29T19:09:14.071Z,20.81
2022-10-29T19:11:43.791Z,20.79
2022-10-29T19:14:16.852Z,20.75
2022-10-29T19:16:53.805Z,20.74
2022-10-29T19:19:24.531Z,20.72
2022-10-29T19:22:00.934Z,20.72
2022-10-29T19:24:43.488Z,20.71
2022-10-29T19:27:18.443Z,20.71
2022-10-29T19:29:48.945Z,20.70
2022-10-29T19:32:23.361Z,20.68
2022-10-29T19:34:53.270Z,20.67
2022-10-29T19:37:29.244Z,20.67
2022-10-29T19:40:00.445Z,20.66
2022-10-29T19:42:34.392Z,20.65
2022-10-29T19:45:07.894Z,20.64
2022-10-29T19:47:57.148Z,20.62
2022-10-29T19:50:29.528Z,20.61
2022-10-29T19:52:59.722Z,20.60
2022-10-29T19:55:38.202Z,20.57
2022-10-29T19:58:15.828Z,20.57
2022-10-29T20:00:59.418Z,20.57
2022-10-29T20:03:33.291Z,20.57
2022-10-29T20:06:10.268Z,20.58
2022-10-29T20:08:45.487Z,20.56
2022-10-29T20:11:19.113Z,20.58
2022-10-29T20:13:56.957Z,20.57
2022-10-29T20:16:28.063Z,20.58
2022-10-29T20:19:02.714Z,20.58
2022-10-29T20:21:33.942Z,20.58
2022-10-29T20:24:12.764Z,20.58
2022-10-29T20:26:43.253Z,20.58
2022-10-29T20:29:17.069Z,20.55
2022-10-29T20:31:56.892Z,20.56
2022-10-29T20:34:48.519Z,20.55
2022-10-29T20:37:20.407Z,20.53
2022-10-29T20:39:53.203Z,20.52
2022-10-29T20:42:20.935Z,20.52
2022-10-29T20:44:48.472Z,20.51
2022-10-29T20:47:16.024Z,20.51
2022-10-29T20:49:44.936Z,20.49
2022-10-29T20:52:12.424Z,20.47
2022-10-29T20:54:39.944Z,20.46
2022-10-29T20:57:07.503Z,20.45
2022-10-29T20:59:35.060Z,20.45
2022-10-29T21:02:02.727Z,20.43
2022-10-29T21:04:30.421Z,20.42
2022-10-29T21:06:59.275Z,20.41
2022-10-29T21:09:26.780Z,20.38
2022-10-29T21:11:54.348Z,20.36
2022-10-29T21:14:23.419Z,20.35
2022-10-29T21:16:51.006Z,20.34
2022-10-29T21:19:18.695Z,20.33
2022-10-29T21:21:46.236Z,20.32
2022-10-29T21:24:15.135Z,20.29
2022-10-29T21:26:42.682Z,20.28
2022-10-29T21:29:10.269Z,20.26
2022-10-29T21:31:37.815Z,20.23
2022-10-29T21:34:05.386Z,20.22
2022-10-29T21:36:32.962Z,20.19
2022-10-29T21:39:00.493Z,20.16
2022-10-29T21:41:29.404Z,20.13
2022-10-29T21:43:56.911Z,20.11
2022-10-29T21:46:24.440Z,20.09
2022-10-29T21:48:51.956Z,20.08
2022-10-29T21:51:19.505Z,20.04
2022-10-29T21:53:47.035Z,20.03
2022-10-29T21:56:16.039Z,19.98
2022-10-29T21:58:45.137Z,19.93
2022-10-29T22:01:14.660Z,19.92
2022-10-29T22:03:44.578Z,19.89
2022-10-29T22:06:13.888Z,19.87
2022-10-29T22:08:42.198Z,19.84
2022-10-29T22:11:10.451Z,19.81
2022-10-29T22:13:38.099Z,19.75
2022-10-29T22:16:08.675Z,19.73
2022-10-29T22:18:36.752Z,19.73
2022-10-29T22:21:09.702Z,19.70
2022-10-29T22:23:38.160Z,19.67
2022-10-29T22:26:05.868Z,19.65
2022-10-29T22:28:33.416Z,19.63
2022-10-29T22:31:02.046Z,19.61
2022-10-29T22:33:31.715Z,19.57
2022-10-29T22:36:05.589Z,19.54
2022-10-29T22:38:33.129Z,19.51
2022-10-29T22:41:04.733Z,19.49
2022-10-29T22:43:32.402Z,19.46
2022-10-29T22:45:59.957Z,19.45
2022-10-29T22:48:27.650Z,19.43
2022-10-29T22:51:03.068Z,19.39
2022-10-29T22:53:30.925Z,19.34
2022-10-29T22:55:58.661Z,19.31
2022-10-29T22:58:26.260Z,19.25
2022-10-29T23:01:02.223Z,19.18
2022-10-29T23:03:29.957Z,19.12
2022-10-29T23:05:58.357Z,19.04
2022-10-29T23:08:27.730Z,19.00
2022-10-29T23:10:55.480Z,18.97
2022-10-29T23:13:23.057Z,18.94
2022-10-29T23:15:51.867Z,18.89
2022-10-29T23:18:19.671Z,18.86
2022-10-29T23:20:47.458Z,18.84
2022-10-29T23:23:15.603Z,18.82
2022-10-29T23:25:44.476Z,18.79
2022-10-29T23:28:12.020Z,18.73
2022-10-29T23:30:39.521Z,18.70
2022-10-29T23:33:07.000Z,18.68
2022-10-29T23:35:35.432Z,18.65
2022-10-29T23:38:02.999Z,18.64
2022-10-29T23:40:30.665Z,18.62
2022-10-29T23:42:59.546Z,18.61
2022-10-29T23:45:27.183Z,18.57
2022-10-29T23:47:54.913Z,18.54
2022-10-29T23:50:22.743Z,18.49
2022-10-29T23:52:50.320Z,18.46
2022-10-29T23:55:17.846Z,18.41
2022-10-29T23:57:45.356Z,18.37
